sensor_id;sensor_type;location;lat;lon;timestamp;pressure;altitude;pressure_sealevel;temperature;humidity
70256;BME280;57669;52.624;-1.688;2023-04-20T00:01:04;102089.71;;;1.96;59.10
70256;BME280;57669;52.624;-1.688;2023-04-20T00:03:29;102084.57;;;2.29;60.05
70256;BME280;57669;52.624;-1.688;2023-04-20T00:05:54;102088.58;;;2.08;59.64
70256;BME280;57669;52.624;-1.688;2023-04-20T00:08:19;102084.85;;;0.95;62.97
70256;BME280;57669;52.624;-1.688;2023-04-20T00:10:45;102087.17;;;2.41;60.06
70256;BME280;57669;52.624;-1.688;2023-04-20T00:13:11;102088.67;;;2.91;58.52
70256;BME280;57669;52.624;-1.688;2023-04-20T00:15:36;102083.22;;;2.00;60.50
70256;BME280;57669;52.624;-1.688;2023-04-20T00:18:02;102089.09;;;2.87;58.31
70256;BME280;57669;52.624;-1.688;2023-04-20T00:20:27;102089.23;;;3.08;56.92
70256;BME280;57669;52.624;-1.688;2023-04-20T00:22:52;102088.23;;;2.26;59.79
70256;BME280;57669;52.624;-1.688;2023-04-20T00:25:19;102082.44;;;3.39;57.80
70256;BME280;57669;52.624;-1.688;2023-04-20T00:27:43;102074.01;;;3.89;55.82
70256;BME280;57669;52.624;-1.688;2023-04-20T00:30:10;102070.92;;;1.97;60.36
70256;BME280;57669;52.624;-1.688;2023-04-20T00:32:34;102067.26;;;1.60;61.82
70256;BME280;57669;52.624;-1.688;2023-04-20T00:34:59;102069.21;;;2.24;60.83
70256;BME280;57669;52.624;-1.688;2023-04-20T00:37:25;102067.99;;;3.09;59.38
70256;BME280;57669;52.624;-1.688;2023-04-20T00:39:50;102067.67;;;2.63;58.30
70256;BME280;57669;52.624;-1.688;2023-04-20T00:42:15;102063.79;;;2.41;60.00
70256;BME280;57669;52.624;-1.688;2023-04-20T00:44:40;102060.65;;;2.51;60.28
70256;BME280;57669;52.624;-1.688;2023-04-20T00:47:06;102056.16;;;1.07;64.29
70256;BME280;57669;52.624;-1.688;2023-04-20T00:49:31;102057.35;;;2.05;63.17
70256;BME280;57669;52.624;-1.688;2023-04-20T00:51:57;102057.49;;;1.98;62.09
70256;BME280;57669;52.624;-1.688;2023-04-20T00:54:21;102054.44;;;2.16;62.55
70256;BME280;57669;52.624;-1.688;2023-04-20T00:56:47;102050.90;;;1.59;64.64
70256;BME280;57669;52.624;-1.688;2023-04-20T00:59:13;102052.38;;;2.97;61.28
70256;BME280;57669;52.624;-1.688;2023-04-20T01:01:38;102047.93;;;0.77;65.84
70256;BME280;57669;52.624;-1.688;2023-04-20T01:04:04;102049.93;;;1.51;64.93
70256;BME280;57669;52.624;-1.688;2023-04-20T01:06:29;102046.46;;;1.23;65.88
70256;BME280;57669;52.624;-1.688;2023-04-20T01:08:54;102046.82;;;1.39;65.27
70256;BME280;57669;52.624;-1.688;2023-04-20T01:11:20;102041.19;;;1.93;65.26
70256;BME280;57669;52.624;-1.688;2023-04-20T01:13:46;102036.87;;;1.11;67.36
70256;BME280;57669;52.624;-1.688;2023-04-20T01:16:11;102046.60;;;0.98;67.71
70256;BME280;57669;52.624;-1.688;2023-04-20T01:18:41;102046.09;;;1.25;65.43
70256;BME280;57669;52.624;-1.688;2023-04-20T01:21:02;102038.52;;;1.71;64.60
70256;BME280;57669;52.624;-1.688;2023-04-20T01:23:28;102038.99;;;1.75;64.07
70256;BME280;57669;52.624;-1.688;2023-04-20T01:25:54;102037.01;;;1.41;64.62
70256;BME280;57669;52.624;-1.688;2023-04-20T01:28:19;102039.17;;;2.68;61.82
70256;BME280;57669;52.624;-1.688;2023-04-20T01:30:45;102040.46;;;2.29;61.38
70256;BME280;57669;52.624;-1.688;2023-04-20T01:33:11;102040.11;;;2.02;62.86
70256;BME280;57669;52.624;-1.688;2023-04-20T01:35:36;102040.14;;;2.70;61.56
70256;BME280;57669;52.624;-1.688;2023-04-20T01:38:02;102036.27;;;3.33;58.20
70256;BME280;57669;52.624;-1.688;2023-04-20T01:40:27;102038.46;;;2.17;60.96
70256;BME280;57669;52.624;-1.688;2023-04-20T01:42:52;102028.12;;;3.28;59.57
70256;BME280;57669;52.624;-1.688;2023-04-20T01:45:18;102032.21;;;2.41;60.65
70256;BME280;57669;52.624;-1.688;2023-04-20T01:47:43;102027.87;;;2.64;60.72
70256;BME280;57669;52.624;-1.688;2023-04-20T01:50:09;102032.20;;;2.66;60.71
70256;BME280;57669;52.624;-1.688;2023-04-20T01:52:34;102021.69;;;2.69;59.58
70256;BME280;57669;52.624;-1.688;2023-04-20T01:54:59;102029.50;;;2.49;60.58
70256;BME280;57669;52.624;-1.688;2023-04-20T01:57:25;102019.64;;;3.40;57.92
70256;BME280;57669;52.624;-1.688;2023-04-20T01:59:50;102017.77;;;4.23;55.01
70256;BME280;57669;52.624;-1.688;2023-04-20T02:02:16;102014.60;;;3.14;57.76
70256;BME280;57669;52.624;-1.688;2023-04-20T02:04:41;102016.31;;;4.70;54.93
70256;BME280;57669;52.624;-1.688;2023-04-20T02:07:07;102015.66;;;5.46;52.84
70256;BME280;57669;52.624;-1.688;2023-04-20T02:09:32;102014.55;;;5.82;51.97
70256;BME280;57669;52.624;-1.688;2023-04-20T02:11:57;102008.86;;;3.07;56.60
70256;BME280;57669;52.624;-1.688;2023-04-20T02:14:22;102012.06;;;5.03;51.99
70256;BME280;57669;52.624;-1.688;2023-04-20T02:16:48;102013.24;;;4.55;53.65
70256;BME280;57669;52.624;-1.688;2023-04-20T02:19:14;102013.56;;;2.87;58.57
70256;BME280;57669;52.624;-1.688;2023-04-20T02:21:39;102013.36;;;4.41;55.68
70256;BME280;57669;52.624;-1.688;2023-04-20T02:24:06;102015.81;;;2.91;58.90
70256;BME280;57669;52.624;-1.688;2023-04-20T02:26:30;102011.65;;;2.97;59.28
70256;BME280;57669;52.624;-1.688;2023-04-20T02:28:56;102015.89;;;2.77;58.97
70256;BME280;57669;52.624;-1.688;2023-04-20T02:31:21;102014.46;;;3.08;59.07
70256;BME280;57669;52.624;-1.688;2023-04-20T02:33:47;102013.14;;;3.18;59.17
70256;BME280;57669;52.624;-1.688;2023-04-20T02:36:12;102010.19;;;3.38;57.45
70256;BME280;57669;52.624;-1.688;2023-04-20T02:38:38;102007.66;;;4.56;54.84
70256;BME280;57669;52.624;-1.688;2023-04-20T02:41:04;102011.38;;;3.91;55.73
70256;BME280;57669;52.624;-1.688;2023-04-20T02:43:29;102011.53;;;3.75;56.93
70256;BME280;57669;52.624;-1.688;2023-04-20T02:45:54;102012.45;;;4.31;55.20
70256;BME280;57669;52.624;-1.688;2023-04-20T02:48:19;102006.76;;;3.73;56.62
70256;BME280;57669;52.624;-1.688;2023-04-20T02:50:45;102008.57;;;3.55;57.78
70256;BME280;57669;52.624;-1.688;2023-04-20T02:53:11;102006.85;;;5.50;53.08
70256;BME280;57669;52.624;-1.688;2023-04-20T02:55:36;102009.75;;;4.06;55.17
70256;BME280;57669;52.624;-1.688;2023-04-20T02:58:02;102006.99;;;4.79;54.50
70256;BME280;57669;52.624;-1.688;2023-04-20T03:00:27;102000.96;;;5.34;52.94
70256;BME280;57669;52.624;-1.688;2023-04-20T03:02:53;102002.57;;;3.83;54.79
70256;BME280;57669;52.624;-1.688;2023-04-20T03:05:18;101999.44;;;5.91;51.39
70256;BME280;57669;52.624;-1.688;2023-04-20T03:07:43;101998.34;;;4.29;54.15
70256;BME280;57669;52.624;-1.688;2023-04-20T03:10:09;102000.29;;;4.36;54.18
70256;BME280;57669;52.624;-1.688;2023-04-20T03:12:34;102002.05;;;3.00;56.36
70256;BME280;57669;52.624;-1.688;2023-04-20T03:15:00;101995.86;;;4.71;54.17
70256;BME280;57669;52.624;-1.688;2023-04-20T03:17:25;102001.69;;;3.52;56.04
70256;BME280;57669;52.624;-1.688;2023-04-20T03:19:50;101998.78;;;3.61;56.70
70256;BME280;57669;52.624;-1.688;2023-04-20T03:22:16;102000.23;;;3.19;56.89
70256;BME280;57669;52.624;-1.688;2023-04-20T03:24:41;102001.76;;;3.93;56.28
70256;BME280;57669;52.624;-1.688;2023-04-20T03:27:06;102000.76;;;2.56;59.00
70256;BME280;57669;52.624;-1.688;2023-04-20T03:29:32;102000.16;;;5.66;52.40
70256;BME280;57669;52.624;-1.688;2023-04-20T03:31:57;102005.12;;;3.94;55.58
70256;BME280;57669;52.624;-1.688;2023-04-20T03:34:23;102003.42;;;4.16;54.24
70256;BME280;57669;52.624;-1.688;2023-04-20T03:36:48;102000.95;;;4.46;54.67
70256;BME280;57669;52.624;-1.688;2023-04-20T03:39:13;102003.78;;;3.63;55.47
70256;BME280;57669;52.624;-1.688;2023-04-20T03:41:39;102012.21;;;2.15;59.93
70256;BME280;57669;52.624;-1.688;2023-04-20T03:44:05;102006.66;;;4.07;57.29
70256;BME280;57669;52.624;-1.688;2023-04-20T03:46:30;102005.25;;;3.96;57.22
70256;BME280;57669;52.624;-1.688;2023-04-20T03:48:56;102006.00;;;3.76;55.48
70256;BME280;57669;52.624;-1.688;2023-04-20T03:51:21;102008.02;;;2.11;58.85
70256;BME280;57669;52.624;-1.688;2023-04-20T03:53:47;102001.91;;;3.51;58.10
70256;BME280;57669;52.624;-1.688;2023-04-20T03:56:12;102009.87;;;3.75;57.96
70256;BME280;57669;52.624;-1.688;2023-04-20T03:58:38;102009.76;;;4.73;55.31
70256;BME280;57669;52.624;-1.688;2023-04-20T04:01:04;102013.91;;;2.59;59.99
70256;BME280;57669;52.624;-1.688;2023-04-20T04:03:29;102018.39;;;2.35;60.56
70256;BME280;57669;52.624;-1.688;2023-04-20T04:05:54;102005.96;;;4.19;56.00
70256;BME280;57669;52.624;-1.688;2023-04-20T04:08:20;102002.50;;;3.36;56.89
70256;BME280;57669;52.624;-1.688;2023-04-20T04:10:46;102000.95;;;3.49;58.47
70256;BME280;57669;52.624;-1.688;2023-04-20T04:13:11;102003.31;;;2.60;59.70
70256;BME280;57669;52.624;-1.688;2023-04-20T04:15:36;102006.61;;;2.55;60.60
70256;BME280;57669;52.624;-1.688;2023-04-20T04:18:02;102003.53;;;3.10;59.68
70256;BME280;57669;52.624;-1.688;2023-04-20T04:20:27;102002.98;;;2.87;60.39
70256;BME280;57669;52.624;-1.688;2023-04-20T04:22:52;102007.46;;;2.21;62.16
70256;BME280;57669;52.624;-1.688;2023-04-20T04:25:17;102012.07;;;1.46;65.06
70256;BME280;57669;52.624;-1.688;2023-04-20T04:27:42;102018.58;;;2.84;62.76
70256;BME280;57669;52.624;-1.688;2023-04-20T04:30:09;102009.58;;;3.72;59.14
70256;BME280;57669;52.624;-1.688;2023-04-20T04:32:33;102012.66;;;2.00;62.67
70256;BME280;57669;52.624;-1.688;2023-04-20T04:34:59;102006.94;;;3.22;60.56
70256;BME280;57669;52.624;-1.688;2023-04-20T04:37:25;102004.35;;;2.96;60.54
70256;BME280;57669;52.624;-1.688;2023-04-20T04:39:50;102013.35;;;3.38;59.46
70256;BME280;57669;52.624;-1.688;2023-04-20T04:42:15;102011.95;;;3.26;59.21
70256;BME280;57669;52.624;-1.688;2023-04-20T04:44:41;102014.12;;;2.95;60.63
70256;BME280;57669;52.624;-1.688;2023-04-20T04:47:06;102023.71;;;2.32;63.66
70256;BME280;57669;52.624;-1.688;2023-04-20T04:49:31;102024.28;;;2.85;61.96
70256;BME280;57669;52.624;-1.688;2023-04-20T04:51:57;102020.33;;;2.58;62.15
70256;BME280;57669;52.624;-1.688;2023-04-20T04:54:22;102020.42;;;1.63;63.28
70256;BME280;57669;52.624;-1.688;2023-04-20T04:56:47;102021.08;;;1.66;65.39
70256;BME280;57669;52.624;-1.688;2023-04-20T04:59:13;102020.58;;;2.13;64.25
70256;BME280;57669;52.624;-1.688;2023-04-20T05:01:38;102023.54;;;2.34;63.02
70256;BME280;57669;52.624;-1.688;2023-04-20T05:04:04;102025.11;;;1.71;65.42
70256;BME280;57669;52.624;-1.688;2023-04-20T05:06:29;102024.78;;;1.25;66.89
70256;BME280;57669;52.624;-1.688;2023-04-20T05:08:55;102027.67;;;1.76;65.54
70256;BME280;57669;52.624;-1.688;2023-04-20T05:11:20;102026.89;;;1.53;65.31
70256;BME280;57669;52.624;-1.688;2023-04-20T05:13:45;102027.04;;;1.24;67.40
70256;BME280;57669;52.624;-1.688;2023-04-20T05:16:11;102029.83;;;1.16;69.30
70256;BME280;57669;52.624;-1.688;2023-04-20T05:18:37;102032.35;;;2.55;65.63
70256;BME280;57669;52.624;-1.688;2023-04-20T05:21:02;102029.53;;;1.47;67.98
70256;BME280;57669;52.624;-1.688;2023-04-20T05:23:28;102031.42;;;2.06;65.41
70256;BME280;57669;52.624;-1.688;2023-04-20T05:25:53;102030.87;;;1.62;66.10
70256;BME280;57669;52.624;-1.688;2023-04-20T05:28:18;102029.58;;;1.59;66.20
70256;BME280;57669;52.624;-1.688;2023-04-20T05:30:44;102026.75;;;1.36;65.51
70256;BME280;57669;52.624;-1.688;2023-04-20T05:33:09;102031.42;;;1.72;66.30
70256;BME280;57669;52.624;-1.688;2023-04-20T05:35:34;102033.09;;;2.41;64.57
70256;BME280;57669;52.624;-1.688;2023-04-20T05:38:00;102035.46;;;1.58;65.24
70256;BME280;57669;52.624;-1.688;2023-04-20T05:40:25;102035.84;;;1.78;65.48
70256;BME280;57669;52.624;-1.688;2023-04-20T05:42:50;102039.15;;;0.66;69.22
70256;BME280;57669;52.624;-1.688;2023-04-20T05:45:16;102040.03;;;1.28;67.11
70256;BME280;57669;52.624;-1.688;2023-04-20T05:47:47;102040.62;;;2.26;66.47
70256;BME280;57669;52.624;-1.688;2023-04-20T05:50:08;102039.28;;;1.46;68.61
70256;BME280;57669;52.624;-1.688;2023-04-20T05:52:33;102042.43;;;2.38;65.55
70256;BME280;57669;52.624;-1.688;2023-04-20T05:54:59;102039.81;;;0.42;70.60
70256;BME280;57669;52.624;-1.688;2023-04-20T05:57:24;102037.28;;;0.70;70.18
70256;BME280;57669;52.624;-1.688;2023-04-20T05:59:49;102037.97;;;0.64;71.33
70256;BME280;57669;52.624;-1.688;2023-04-20T06:02:15;102033.13;;;1.65;69.27
70256;BME280;57669;52.624;-1.688;2023-04-20T06:04:40;102039.36;;;0.55;72.90
70256;BME280;57669;52.624;-1.688;2023-04-20T06:07:06;102040.70;;;0.77;72.21
70256;BME280;57669;52.624;-1.688;2023-04-20T06:09:31;102035.00;;;2.00;69.08
70256;BME280;57669;52.624;-1.688;2023-04-20T06:11:57;102034.58;;;1.62;69.63
70256;BME280;57669;52.624;-1.688;2023-04-20T06:14:22;102043.40;;;1.59;69.97
70256;BME280;57669;52.624;-1.688;2023-04-20T06:16:47;102043.70;;;0.75;71.82
70256;BME280;57669;52.624;-1.688;2023-04-20T06:19:13;102046.09;;;0.85;71.52
70256;BME280;57669;52.624;-1.688;2023-04-20T06:21:40;102043.96;;;1.13;71.53
70256;BME280;57669;52.624;-1.688;2023-04-20T06:24:05;102046.28;;;1.72;69.63
70256;BME280;57669;52.624;-1.688;2023-04-20T06:26:29;102047.72;;;1.79;68.78
70256;BME280;57669;52.624;-1.688;2023-04-20T06:28:55;102046.56;;;1.86;69.58
70256;BME280;57669;52.624;-1.688;2023-04-20T06:31:21;102045.59;;;1.93;68.97
70256;BME280;57669;52.624;-1.688;2023-04-20T06:33:46;102039.54;;;1.74;69.80
70256;BME280;57669;52.624;-1.688;2023-04-20T06:36:11;102044.95;;;1.97;69.24
70256;BME280;57669;52.624;-1.688;2023-04-20T06:38:37;102037.68;;;1.71;70.73
70256;BME280;57669;52.624;-1.688;2023-04-20T06:41:02;102040.18;;;1.68;69.25
70256;BME280;57669;52.624;-1.688;2023-04-20T06:43:27;102042.69;;;2.47;68.02
70256;BME280;57669;52.624;-1.688;2023-04-20T06:45:52;102043.95;;;2.15;68.92
70256;BME280;57669;52.624;-1.688;2023-04-20T06:48:18;102044.54;;;2.52;67.47
70256;BME280;57669;52.624;-1.688;2023-04-20T06:50:43;102042.26;;;3.38;66.17
70256;BME280;57669;52.624;-1.688;2023-04-20T06:53:08;102045.36;;;2.71;66.16
70256;BME280;57669;52.624;-1.688;2023-04-20T06:55:33;102046.53;;;2.49;67.62
70256;BME280;57669;52.624;-1.688;2023-04-20T06:57:59;102049.59;;;2.79;67.64
70256;BME280;57669;52.624;-1.688;2023-04-20T07:00:25;102049.21;;;2.81;66.85
70256;BME280;57669;52.624;-1.688;2023-04-20T07:02:50;102043.05;;;2.82;67.41
70256;BME280;57669;52.624;-1.688;2023-04-20T07:05:16;102039.95;;;3.03;65.48
70256;BME280;57669;52.624;-1.688;2023-04-20T07:07:42;102044.85;;;2.44;67.79
70256;BME280;57669;52.624;-1.688;2023-04-20T07:10:08;102044.78;;;2.53;68.93
70256;BME280;57669;52.624;-1.688;2023-04-20T07:12:33;102034.92;;;3.28;66.06
70256;BME280;57669;52.624;-1.688;2023-04-20T07:14:58;102037.07;;;3.20;66.18
70256;BME280;57669;52.624;-1.688;2023-04-20T07:17:26;102041.59;;;3.18;66.12
70256;BME280;57669;52.624;-1.688;2023-04-20T07:19:49;102034.91;;;3.08;65.25
70256;BME280;57669;52.624;-1.688;2023-04-20T07:22:14;102042.08;;;3.17;66.37
70256;BME280;57669;52.624;-1.688;2023-04-20T07:24:39;102035.39;;;3.16;64.84
70256;BME280;57669;52.624;-1.688;2023-04-20T07:27:04;102038.03;;;3.61;64.35
70256;BME280;57669;52.624;-1.688;2023-04-20T07:29:30;102039.35;;;4.24;62.53
70256;BME280;57669;52.624;-1.688;2023-04-20T07:31:55;102033.62;;;4.67;61.76
70256;BME280;57669;52.624;-1.688;2023-04-20T07:34:20;102034.57;;;4.98;60.82
70256;BME280;57669;52.624;-1.688;2023-04-20T07:36:45;102035.12;;;5.00;59.21
70256;BME280;57669;52.624;-1.688;2023-04-20T07:39:11;102034.95;;;4.50;61.08
70256;BME280;57669;52.624;-1.688;2023-04-20T07:41:36;102036.43;;;4.89;60.16
70256;BME280;57669;52.624;-1.688;2023-04-20T07:44:02;102032.06;;;4.35;61.86
70256;BME280;57669;52.624;-1.688;2023-04-20T07:46:27;102034.95;;;4.29;62.40
70256;BME280;57669;52.624;-1.688;2023-04-20T07:48:53;102031.99;;;4.73;61.05
70256;BME280;57669;52.624;-1.688;2023-04-20T07:51:18;102030.81;;;4.30;60.67
70256;BME280;57669;52.624;-1.688;2023-04-20T07:53:43;102030.13;;;4.30;60.19
70256;BME280;57669;52.624;-1.688;2023-04-20T07:56:09;102032.53;;;4.52;59.68
70256;BME280;57669;52.624;-1.688;2023-04-20T07:58:34;102026.73;;;4.19;61.57
70256;BME280;57669;52.624;-1.688;2023-04-20T08:00:59;102027.10;;;4.55;61.23
70256;BME280;57669;52.624;-1.688;2023-04-20T08:03:25;102021.66;;;4.93;60.38
70256;BME280;57669;52.624;-1.688;2023-04-20T08:05:50;102019.05;;;5.64;57.33
70256;BME280;57669;52.624;-1.688;2023-04-20T08:08:16;102019.23;;;5.09;56.74
70256;BME280;57669;52.624;-1.688;2023-04-20T08:10:41;102018.88;;;5.13;57.85
70256;BME280;57669;52.624;-1.688;2023-04-20T08:13:07;102019.44;;;5.35;56.70
70256;BME280;57669;52.624;-1.688;2023-04-20T08:15:32;102015.59;;;5.11;56.60
70256;BME280;57669;52.624;-1.688;2023-04-20T08:17:58;102013.43;;;5.39;56.16
70256;BME280;57669;52.624;-1.688;2023-04-20T08:20:24;102012.84;;;5.58;54.87
70256;BME280;57669;52.624;-1.688;2023-04-20T08:22:49;102017.37;;;6.11;53.43
70256;BME280;57669;52.624;-1.688;2023-04-20T08:25:15;102013.32;;;5.40;53.76
70256;BME280;57669;52.624;-1.688;2023-04-20T08:27:40;102016.83;;;5.88;52.62
70256;BME280;57669;52.624;-1.688;2023-04-20T08:30:07;102014.30;;;6.45;49.42
70256;BME280;57669;52.624;-1.688;2023-04-20T08:32:31;102007.19;;;6.94;48.29
70256;BME280;57669;52.624;-1.688;2023-04-20T08:34:57;102005.41;;;7.28;46.41
70256;BME280;57669;52.624;-1.688;2023-04-20T08:37:22;101999.47;;;8.70;41.91
70256;BME280;57669;52.624;-1.688;2023-04-20T08:39:47;101996.48;;;8.94;41.68
70256;BME280;57669;52.624;-1.688;2023-04-20T08:42:12;101996.57;;;10.19;38.77
70256;BME280;57669;52.624;-1.688;2023-04-20T08:44:38;101998.41;;;9.93;40.65
70256;BME280;57669;52.624;-1.688;2023-04-20T08:47:03;101997.34;;;10.34;38.14
70256;BME280;57669;52.624;-1.688;2023-04-20T08:49:29;101992.76;;;10.83;36.70
70256;BME280;57669;52.624;-1.688;2023-04-20T08:51:55;101992.67;;;10.47;38.85
70256;BME280;57669;52.624;-1.688;2023-04-20T08:54:20;101985.50;;;11.60;36.15
70256;BME280;57669;52.624;-1.688;2023-04-20T08:56:46;101983.90;;;12.40;33.91
70256;BME280;57669;52.624;-1.688;2023-04-20T08:59:12;101979.56;;;11.73;34.85
70256;BME280;57669;52.624;-1.688;2023-04-20T09:01:37;101973.66;;;12.87;33.48
70256;BME280;57669;52.624;-1.688;2023-04-20T09:04:14;101974.70;;;12.54;33.36
70256;BME280;57669;52.624;-1.688;2023-04-20T09:06:28;101974.54;;;10.09;35.42
70256;BME280;57669;52.624;-1.688;2023-04-20T09:08:54;101974.18;;;10.82;34.51
70256;BME280;57669;52.624;-1.688;2023-04-20T09:11:20;101970.53;;;9.70;36.31
70256;BME280;57669;52.624;-1.688;2023-04-20T09:16:11;101963.92;;;10.82;34.42
70256;BME280;57669;52.624;-1.688;2023-04-20T09:18:37;101958.49;;;10.77;34.10
70256;BME280;57669;52.624;-1.688;2023-04-20T09:21:07;101957.83;;;10.70;34.39
70256;BME280;57669;52.624;-1.688;2023-04-20T09:23:27;101953.10;;;11.37;34.07
70256;BME280;57669;52.624;-1.688;2023-04-20T09:25:53;101951.69;;;10.70;34.12
70256;BME280;57669;52.624;-1.688;2023-04-20T09:28:19;101947.86;;;11.42;33.57
70256;BME280;57669;52.624;-1.688;2023-04-20T09:30:45;101953.85;;;10.80;32.64
70256;BME280;57669;52.624;-1.688;2023-04-20T09:33:09;101954.63;;;9.55;35.67
70256;BME280;57669;52.624;-1.688;2023-04-20T09:35:35;101944.80;;;9.93;35.08
70256;BME280;57669;52.624;-1.688;2023-04-20T09:38:00;101953.23;;;10.58;34.82
70256;BME280;57669;52.624;-1.688;2023-04-20T09:40:26;101946.71;;;10.16;33.76
70256;BME280;57669;52.624;-1.688;2023-04-20T09:42:53;101940.30;;;9.94;34.84
70256;BME280;57669;52.624;-1.688;2023-04-20T09:45:18;101945.06;;;10.69;33.27
70256;BME280;57669;52.624;-1.688;2023-04-20T09:47:45;101942.76;;;9.79;33.48
70256;BME280;57669;52.624;-1.688;2023-04-20T09:50:11;101938.43;;;9.62;33.63
70256;BME280;57669;52.624;-1.688;2023-04-20T09:52:36;101928.54;;;9.42;33.10
70256;BME280;57669;52.624;-1.688;2023-04-20T09:55:01;101925.87;;;9.58;33.77
70256;BME280;57669;52.624;-1.688;2023-04-20T09:57:26;101928.82;;;9.83;33.39
70256;BME280;57669;52.624;-1.688;2023-04-20T09:59:53;101920.64;;;9.98;31.12
70256;BME280;57669;52.624;-1.688;2023-04-20T10:02:18;101920.66;;;10.57;31.56
70256;BME280;57669;52.624;-1.688;2023-04-20T10:04:51;101927.32;;;10.67;31.52
70256;BME280;57669;52.624;-1.688;2023-04-20T10:07:09;101920.55;;;10.31;30.44
70256;BME280;57669;52.624;-1.688;2023-04-20T10:09:35;101920.46;;;9.93;31.39
70256;BME280;57669;52.624;-1.688;2023-04-20T10:12:06;101905.47;;;10.76;30.63
70256;BME280;57669;52.624;-1.688;2023-04-20T10:14:26;101908.14;;;11.64;28.99
70256;BME280;57669;52.624;-1.688;2023-04-20T10:16:57;101910.30;;;10.66;29.44
70256;BME280;57669;52.624;-1.688;2023-04-20T10:19:17;101903.53;;;11.38;28.36
70256;BME280;57669;52.624;-1.688;2023-04-20T10:21:45;101905.04;;;12.49;27.91
70256;BME280;57669;52.624;-1.688;2023-04-20T10:24:09;101900.37;;;11.32;28.27
70256;BME280;57669;52.624;-1.688;2023-04-20T10:26:35;101900.41;;;11.82;27.26
70256;BME280;57669;52.624;-1.688;2023-04-20T10:29:01;101892.30;;;11.41;27.71
70256;BME280;57669;52.624;-1.688;2023-04-20T10:31:34;101890.72;;;12.71;26.71
70256;BME280;57669;52.624;-1.688;2023-04-20T10:33:53;101888.98;;;12.20;26.91
70256;BME280;57669;52.624;-1.688;2023-04-20T10:36:23;101887.91;;;12.38;26.93
70256;BME280;57669;52.624;-1.688;2023-04-20T10:38:43;101884.79;;;14.21;25.41
70256;BME280;57669;52.624;-1.688;2023-04-20T10:41:10;101876.49;;;13.46;25.61
70256;BME280;57669;52.624;-1.688;2023-04-20T10:43:34;101872.86;;;14.78;23.73
70256;BME280;57669;52.624;-1.688;2023-04-20T10:45:59;101867.65;;;13.57;24.78
70256;BME280;57669;52.624;-1.688;2023-04-20T10:48:25;101869.35;;;14.40;24.35
70256;BME280;57669;52.624;-1.688;2023-04-20T10:50:50;101856.87;;;13.64;25.78
70256;BME280;57669;52.624;-1.688;2023-04-20T10:53:17;101841.56;;;15.75;23.63
70256;BME280;57669;52.624;-1.688;2023-04-20T10:55:41;101853.99;;;15.25;24.10
70256;BME280;57669;52.624;-1.688;2023-04-20T10:58:07;101843.56;;;16.62;22.46
70256;BME280;57669;52.624;-1.688;2023-04-20T11:00:32;101849.47;;;14.14;24.05
70256;BME280;57669;52.624;-1.688;2023-04-20T11:02:57;101849.01;;;15.31;23.80
70256;BME280;57669;52.624;-1.688;2023-04-20T11:05:24;101856.57;;;14.66;24.91
70256;BME280;57669;52.624;-1.688;2023-04-20T11:07:52;101842.59;;;15.56;23.79
70256;BME280;57669;52.624;-1.688;2023-04-20T11:10:14;101853.41;;;14.22;25.19
70256;BME280;57669;52.624;-1.688;2023-04-20T11:12:40;101843.46;;;16.66;22.60
70256;BME280;57669;52.624;-1.688;2023-04-20T11:15:07;101835.50;;;16.30;22.85
70256;BME280;57669;52.624;-1.688;2023-04-20T11:17:32;101832.33;;;15.51;23.83
70256;BME280;57669;52.624;-1.688;2023-04-20T11:20:03;101836.29;;;14.72;23.85
70256;BME280;57669;52.624;-1.688;2023-04-20T11:22:22;101835.23;;;15.47;23.79
70256;BME280;57669;52.624;-1.688;2023-04-20T11:24:48;101835.00;;;16.26;23.45
70256;BME280;57669;52.624;-1.688;2023-04-20T11:27:18;101844.06;;;14.41;25.14
70256;BME280;57669;52.624;-1.688;2023-04-20T11:29:42;101838.57;;;14.61;25.05
70256;BME280;57669;52.624;-1.688;2023-04-20T11:32:07;101836.24;;;14.61;25.07
70256;BME280;57669;52.624;-1.688;2023-04-20T11:34:31;101827.38;;;14.28;24.99
70256;BME280;57669;52.624;-1.688;2023-04-20T11:37:03;101808.79;;;14.30;23.88
70256;BME280;57669;52.624;-1.688;2023-04-20T11:39:23;101818.06;;;13.58;25.05
70256;BME280;57669;52.624;-1.688;2023-04-20T11:41:47;101810.94;;;13.34;25.82
70256;BME280;57669;52.624;-1.688;2023-04-20T11:44:13;101800.36;;;14.36;24.97
70256;BME280;57669;52.624;-1.688;2023-04-20T11:46:39;101801.98;;;14.01;25.56
70256;BME280;57669;52.624;-1.688;2023-04-20T11:49:04;101796.99;;;15.35;24.52
70256;BME280;57669;52.624;-1.688;2023-04-20T11:51:30;101794.71;;;14.60;25.33
70256;BME280;57669;52.624;-1.688;2023-04-20T11:53:56;101780.92;;;15.34;23.49
70256;BME280;57669;52.624;-1.688;2023-04-20T11:56:21;101782.05;;;15.61;22.69
70256;BME280;57669;52.624;-1.688;2023-04-20T11:58:47;101775.21;;;15.53;22.97
70256;BME280;57669;52.624;-1.688;2023-04-20T12:01:13;101770.56;;;15.77;23.07
70256;BME280;57669;52.624;-1.688;2023-04-20T12:03:38;101762.38;;;15.84;22.43
70256;BME280;57669;52.624;-1.688;2023-04-20T12:06:04;101761.08;;;16.71;21.92
70256;BME280;57669;52.624;-1.688;2023-04-20T12:08:30;101756.83;;;15.03;22.04
70256;BME280;57669;52.624;-1.688;2023-04-20T12:10:55;101752.36;;;15.06;23.02
70256;BME280;57669;52.624;-1.688;2023-04-20T12:13:21;101751.22;;;13.84;24.00
70256;BME280;57669;52.624;-1.688;2023-04-20T12:15:47;101748.07;;;15.54;22.56
70256;BME280;57669;52.624;-1.688;2023-04-20T12:18:12;101749.56;;;15.21;23.40
70256;BME280;57669;52.624;-1.688;2023-04-20T12:20:38;101762.15;;;13.92;23.91
70256;BME280;57669;52.624;-1.688;2023-04-20T12:23:04;101750.51;;;16.48;22.11
70256;BME280;57669;52.624;-1.688;2023-04-20T12:25:29;101747.82;;;14.55;23.12
70256;BME280;57669;52.624;-1.688;2023-04-20T12:27:55;101746.72;;;15.17;21.62
70256;BME280;57669;52.624;-1.688;2023-04-20T12:30:21;101747.87;;;15.81;21.15
70256;BME280;57669;52.624;-1.688;2023-04-20T12:32:46;101746.59;;;15.06;21.72
70256;BME280;57669;52.624;-1.688;2023-04-20T12:35:12;101740.03;;;16.37;21.27
70256;BME280;57669;52.624;-1.688;2023-04-20T12:37:37;101737.11;;;17.29;21.42
70256;BME280;57669;52.624;-1.688;2023-04-20T12:40:04;101735.60;;;16.12;20.59